sensor_id;sensor_type;location;lat;lon;timestamp;pressure;altitude;pressure_sealevel;temperature;humidity
78210;BME280;67485;48.816;9.930;2023-04-06T00:01:38;97068.09;;;0.58;61.54
78210;BME280;67485;48.816;9.930;2023-04-06T00:04:04;97067.22;;;0.59;61.98
78210;BME280;67485;48.816;9.930;2023-04-06T00:06:29;97062.66;;;0.42;62.53
78210;BME280;67485;48.816;9.930;2023-04-06T00:08:55;97064.25;;;0.36;62.93
78210;BME280;67485;48.816;9.930;2023-04-06T00:11:22;97053.84;;;0.31;63.33
78210;BME280;67485;48.816;9.930;2023-04-06T00:13:48;97054.88;;;0.39;63.21
78210;BME280;67485;48.816;9.930;2023-04-06T00:16:13;97055.13;;;0.56;62.11
78210;BME280;67485;48.816;9.930;2023-04-06T00:18:40;97059.44;;;0.56;62.07
78210;BME280;67485;48.816;9.930;2023-04-06T00:21:06;97048.41;;;0.64;62.11
78210;BME280;67485;48.816;9.930;2023-04-06T00:23:32;97054.16;;;0.46;62.95
78210;BME280;67485;48.816;9.930;2023-04-06T00:25:57;97046.78;;;0.18;64.71
78210;BME280;67485;48.816;9.930;2023-04-06T00:28:23;97057.09;;;0.18;64.47
78210;BME280;67485;48.816;9.930;2023-04-06T00:30:52;97045.19;;;0.26;64.18
78210;BME280;67485;48.816;9.930;2023-04-06T00:33:21;97045.19;;;0.26;63.91
78210;BME280;67485;48.816;9.930;2023-04-06T00:35:47;97043.72;;;0.40;63.59
78210;BME280;67485;48.816;9.930;2023-04-06T00:38:13;97047.28;;;0.50;63.04
78210;BME280;67485;48.816;9.930;2023-04-06T00:40:39;97043.75;;;0.43;63.60
78210;BME280;67485;48.816;9.930;2023-04-06T00:43:08;97041.25;;;0.48;63.24
78210;BME280;67485;48.816;9.930;2023-04-06T00:45:34;97040.34;;;0.44;63.08
78210;BME280;67485;48.816;9.930;2023-04-06T00:48:00;97038.56;;;0.40;63.07
78210;BME280;67485;48.816;9.930;2023-04-06T00:50:27;97036.59;;;0.27;64.55
78210;BME280;67485;48.816;9.930;2023-04-06T00:52:54;97035.94;;;0.39;63.45
78210;BME280;67485;48.816;9.930;2023-04-06T00:55:26;97029.22;;;0.48;63.34
78210;BME280;67485;48.816;9.930;2023-04-06T00:57:53;97034.59;;;0.61;62.69
78210;BME280;67485;48.816;9.930;2023-04-06T01:00:19;97028.38;;;0.50;62.44
78210;BME280;67485;48.816;9.930;2023-04-06T01:02:48;97030.03;;;0.46;62.54
78210;BME280;67485;48.816;9.930;2023-04-06T01:05:17;97028.50;;;0.56;63.14
78210;BME280;67485;48.816;9.930;2023-04-06T01:07:53;97026.84;;;0.61;62.54
78210;BME280;67485;48.816;9.930;2023-04-06T01:10:27;97025.91;;;0.56;62.78
78210;BME280;67485;48.816;9.930;2023-04-06T01:13:10;97021.59;;;0.55;62.55
78210;BME280;67485;48.816;9.930;2023-04-06T01:15:47;97024.28;;;0.62;62.40
78210;BME280;67485;48.816;9.930;2023-04-06T01:18:25;97020.03;;;0.66;62.67
78210;BME280;67485;48.816;9.930;2023-04-06T01:20:58;97023.31;;;0.53;62.34
78210;BME280;67485;48.816;9.930;2023-04-06T01:23:25;97015.59;;;0.56;62.12
78210;BME280;67485;48.816;9.930;2023-04-06T01:25:51;97012.91;;;0.50;62.39
78210;BME280;67485;48.816;9.930;2023-04-06T01:28:17;97007.69;;;0.45;62.24
78210;BME280;67485;48.816;9.930;2023-04-06T01:31:04;97004.31;;;0.49;62.27
78210;BME280;67485;48.816;9.930;2023-04-06T01:33:59;97003.25;;;0.36;62.47
78210;BME280;67485;48.816;9.930;2023-04-06T01:36:25;96998.16;;;0.41;62.43
78210;BME280;67485;48.816;9.930;2023-04-06T01:39:04;96998.16;;;0.41;62.67
78210;BME280;67485;48.816;9.930;2023-04-06T01:41:34;96988.72;;;0.41;62.09
78210;BME280;67485;48.816;9.930;2023-04-06T01:44:01;96995.66;;;0.45;61.93
78210;BME280;67485;48.816;9.930;2023-04-06T01:46:28;96992.16;;;0.40;61.88
78210;BME280;67485;48.816;9.930;2023-04-06T01:48:54;96988.72;;;0.41;61.95
78210;BME280;67485;48.816;9.930;2023-04-06T01:51:33;96983.56;;;0.41;62.24
78210;BME280;67485;48.816;9.930;2023-04-06T01:54:01;96980.41;;;0.58;61.63
78210;BME280;67485;48.816;9.930;2023-04-06T01:56:43;96979.53;;;0.59;61.33
78210;BME280;67485;48.816;9.930;2023-04-06T01:59:23;96980.97;;;0.41;61.75
78210;BME280;67485;48.816;9.930;2023-04-06T02:01:49;96981.66;;;0.29;62.12
78210;BME280;67485;48.816;9.930;2023-04-06T02:04:15;96984.94;;;0.21;62.84
78210;BME280;67485;48.816;9.930;2023-04-06T02:06:43;96976.31;;;0.19;62.73
78210;BME280;67485;48.816;9.930;2023-04-06T02:09:12;96986.47;;;0.09;62.59
78210;BME280;67485;48.816;9.930;2023-04-06T02:11:38;96976.38;;;0.22;62.90
78210;BME280;67485;48.816;9.930;2023-04-06T02:14:04;96974.75;;;0.27;62.56
78210;BME280;67485;48.816;9.930;2023-04-06T02:16:34;96978.94;;;0.20;62.51
78210;BME280;67485;48.816;9.930;2023-04-06T02:18:59;96977.22;;;0.21;62.62
78210;BME280;67485;48.816;9.930;2023-04-06T02:21:25;96974.75;;;0.28;62.80
78210;BME280;67485;48.816;9.930;2023-04-06T02:23:51;96972.19;;;0.30;62.36
78210;BME280;67485;48.816;9.930;2023-04-06T02:26:17;96971.38;;;0.31;62.67
78210;BME280;67485;48.816;9.930;2023-04-06T02:28:42;96975.66;;;0.29;62.97
78210;BME280;67485;48.816;9.930;2023-04-06T02:31:08;96977.19;;;0.18;63.15
78210;BME280;67485;48.816;9.930;2023-04-06T02:33:34;96971.03;;;0.09;62.76
78210;BME280;67485;48.816;9.930;2023-04-06T02:36:01;96978.66;;;0.05;63.44
78210;BME280;67485;48.816;9.930;2023-04-06T02:38:27;96972.44;;;-0.08;64.76
78210;BME280;67485;48.816;9.930;2023-04-06T02:40:53;96975.91;;;-0.06;64.86
78210;BME280;67485;48.816;9.930;2023-04-06T02:43:23;96978.53;;;-0.03;64.49
78210;BME280;67485;48.816;9.930;2023-04-06T02:45:53;96972.53;;;-0.02;64.09
78210;BME280;67485;48.816;9.930;2023-04-06T02:48:21;96972.47;;;-0.05;63.91
78210;BME280;67485;48.816;9.930;2023-04-06T02:50:46;96972.25;;;-0.18;64.20
78210;BME280;67485;48.816;9.930;2023-04-06T02:53:12;96971.50;;;-0.13;64.35
78210;BME280;67485;48.816;9.930;2023-04-06T02:55:39;96973.72;;;-0.32;64.93
78210;BME280;67485;48.816;9.930;2023-04-06T02:58:05;96972.00;;;-0.31;65.06
78210;BME280;67485;48.816;9.930;2023-04-06T03:00:39;96961.53;;;-0.41;65.02
78210;BME280;67485;48.816;9.930;2023-04-06T03:03:05;96964.94;;;-0.43;64.75
78210;BME280;67485;48.816;9.930;2023-04-06T03:05:33;96966.69;;;-0.42;64.71
78210;BME280;67485;48.816;9.930;2023-04-06T03:07:59;96971.63;;;-0.52;65.22
78210;BME280;67485;48.816;9.930;2023-04-06T03:10:41;96971.25;;;-0.70;65.41
78210;BME280;67485;48.816;9.930;2023-04-06T03:13:07;96963.66;;;-0.66;65.11
78210;BME280;67485;48.816;9.930;2023-04-06T03:15:46;96969.81;;;-0.57;65.43
78210;BME280;67485;48.816;9.930;2023-04-06T03:18:15;96962.16;;;-0.53;64.88
78210;BME280;67485;48.816;9.930;2023-04-06T03:20:46;96971.44;;;-0.62;65.28
78210;BME280;67485;48.816;9.930;2023-04-06T03:23:14;96976.25;;;-0.78;65.15
78210;BME280;67485;48.816;9.930;2023-04-06T03:25:42;96972.72;;;-0.85;66.13
78210;BME280;67485;48.816;9.930;2023-04-06T03:28:11;96969.31;;;-0.84;66.29
78210;BME280;67485;48.816;9.930;2023-04-06T03:30:46;96975.38;;;-0.80;65.96
78210;BME280;67485;48.816;9.930;2023-04-06T03:33:15;96970.28;;;-0.77;65.91
78210;BME280;67485;48.816;9.930;2023-04-06T03:35:49;96977.19;;;-0.74;66.04
78210;BME280;67485;48.816;9.930;2023-04-06T03:38:16;96972.97;;;-0.72;66.18
78210;BME280;67485;48.816;9.930;2023-04-06T03:40:42;96979.03;;;-0.69;65.69
78210;BME280;67485;48.816;9.930;2023-04-06T03:43:08;96980.56;;;-0.77;65.91
78210;BME280;67485;48.816;9.930;2023-04-06T03:45:36;96982.91;;;-0.88;67.04
78210;BME280;67485;48.816;9.930;2023-04-06T03:48:04;96982.91;;;-0.89;66.75
78210;BME280;67485;48.816;9.930;2023-04-06T03:50:33;96986.34;;;-0.89;67.13
78210;BME280;67485;48.816;9.930;2023-04-06T03:52:59;96981.25;;;-0.86;66.73
78210;BME280;67485;48.816;9.930;2023-04-06T03:55:28;96993.22;;;-0.88;66.85
78210;BME280;67485;48.816;9.930;2023-04-06T03:57:56;96987.84;;;-0.99;66.84
78210;BME280;67485;48.816;9.930;2023-04-06T04:00:22;96992.84;;;-1.06;67.50
78210;BME280;67485;48.816;9.930;2023-04-06T04:02:48;96991.09;;;-1.07;67.89
78210;BME280;67485;48.816;9.930;2023-04-06T04:05:14;96991.09;;;-1.07;67.20
78210;BME280;67485;48.816;9.930;2023-04-06T04:07:40;96989.41;;;-1.05;67.28
78210;BME280;67485;48.816;9.930;2023-04-06T04:10:08;96990.50;;;-0.94;67.61
78210;BME280;67485;48.816;9.930;2023-04-06T04:12:34;96991.41;;;-0.92;67.08
78210;BME280;67485;48.816;9.930;2023-04-06T04:15:00;96999.16;;;-0.90;67.14
78210;BME280;67485;48.816;9.930;2023-04-06T04:17:26;96994.94;;;-0.87;66.96
78210;BME280;67485;48.816;9.930;2023-04-06T04:19:52;96988.03;;;-0.89;66.72
78210;BME280;67485;48.816;9.930;2023-04-06T04:22:17;96988.00;;;-0.91;66.62
78210;BME280;67485;48.816;9.930;2023-04-06T04:24:43;96992.50;;;-0.80;66.77
78210;BME280;67485;48.816;9.930;2023-04-06T04:27:09;96995.28;;;-0.71;65.80
78210;BME280;67485;48.816;9.930;2023-04-06T04:29:35;96998.75;;;-0.69;65.78
78210;BME280;67485;48.816;9.930;2023-04-06T04:32:05;97002.75;;;-0.84;66.15
78210;BME280;67485;48.816;9.930;2023-04-06T04:34:31;96998.41;;;-0.86;66.38
78210;BME280;67485;48.816;9.930;2023-04-06T04:36:57;96999.91;;;-0.96;66.47
78210;BME280;67485;48.816;9.930;2023-04-06T04:39:34;97001.53;;;-1.01;66.86
78210;BME280;67485;48.816;9.930;2023-04-06T04:42:04;96999.69;;;-1.05;67.08
78210;BME280;67485;48.816;9.930;2023-04-06T04:44:33;97011.00;;;-0.99;66.64
78210;BME280;67485;48.816;9.930;2023-04-06T04:46:59;97001.53;;;-1.01;67.30
78210;BME280;67485;48.816;9.930;2023-04-06T04:49:36;97009.16;;;-1.04;66.94
78210;BME280;67485;48.816;9.930;2023-04-06T04:52:03;97005.75;;;-1.03;67.37
78210;BME280;67485;48.816;9.930;2023-04-06T04:54:37;97010.97;;;-1.00;67.46
78210;BME280;67485;48.816;9.930;2023-04-06T04:57:03;97009.94;;;-1.08;67.22
78210;BME280;67485;48.816;9.930;2023-04-06T04:59:47;97015.34;;;-0.96;66.96
78210;BME280;67485;48.816;9.930;2023-04-06T05:02:17;97014.53;;;-0.95;67.14
78210;BME280;67485;48.816;9.930;2023-04-06T05:04:54;97017.66;;;-1.08;66.97
78210;BME280;67485;48.816;9.930;2023-04-06T05:07:23;97019.38;;;-1.09;67.58
78210;BME280;67485;48.816;9.930;2023-04-06T05:09:52;97025.25;;;-1.13;68.07
78210;BME280;67485;48.816;9.930;2023-04-06T05:12:19;97025.41;;;-1.05;67.77
78210;BME280;67485;48.816;9.930;2023-04-06T05:15:01;97024.94;;;-0.89;66.72
78210;BME280;67485;48.816;9.930;2023-04-06T05:17:27;97029.22;;;-0.88;66.95
78210;BME280;67485;48.816;9.930;2023-04-06T05:19:54;97029.44;;;-0.78;66.79
78210;BME280;67485;48.816;9.930;2023-04-06T05:22:23;97027.00;;;-0.72;66.83
78210;BME280;67485;48.816;9.930;2023-04-06T05:24:57;97029.59;;;-0.72;66.38
78210;BME280;67485;48.816;9.930;2023-04-06T05:27:23;97029.56;;;-0.74;66.51
78210;BME280;67485;48.816;9.930;2023-04-06T05:29:49;97030.47;;;-0.70;66.96
78210;BME280;67485;48.816;9.930;2023-04-06T05:32:16;97037.19;;;-0.77;66.61
78210;BME280;67485;48.816;9.930;2023-04-06T05:34:43;97045.06;;;-0.69;66.84
78210;BME280;67485;48.816;9.930;2023-04-06T05:37:09;97038.91;;;-0.36;65.93
78210;BME280;67485;48.816;9.930;2023-04-06T05:39:35;97043.31;;;-0.29;65.29
78210;BME280;67485;48.816;9.930;2023-04-06T05:42:04;97042.59;;;-0.22;65.55
78210;BME280;67485;48.816;9.930;2023-04-06T05:44:46;97045.41;;;-0.09;65.18
78210;BME280;67485;48.816;9.930;2023-04-06T05:47:14;97045.53;;;-0.03;64.59
78210;BME280;67485;48.816;9.930;2023-04-06T05:49:42;97048.91;;;-0.07;64.69
78210;BME280;67485;48.816;9.930;2023-04-06T05:52:13;97046.13;;;-0.17;64.95
78210;BME280;67485;48.816;9.930;2023-04-06T05:54:43;97049.59;;;-0.14;65.46
78210;BME280;67485;48.816;9.930;2023-04-06T05:57:08;97053.25;;;-0.03;64.96
78210;BME280;67485;48.816;9.930;2023-04-06T05:59:34;97049.38;;;0.21;65.13
78210;BME280;67485;48.816;9.930;2023-04-06T06:02:01;97046.81;;;0.21;64.67
78210;BME280;67485;48.816;9.930;2023-04-06T06:04:30;97048.38;;;0.12;64.98
78210;BME280;67485;48.816;9.930;2023-04-06T06:06:56;97050.13;;;0.15;64.96
78210;BME280;67485;48.816;9.930;2023-04-06T06:09:34;97048.59;;;0.25;65.04
78210;BME280;67485;48.816;9.930;2023-04-06T06:12:13;97050.34;;;0.26;65.04
78210;BME280;67485;48.816;9.930;2023-04-06T06:14:39;97054.75;;;0.31;65.50
78210;BME280;67485;48.816;9.930;2023-04-06T06:17:06;97056.44;;;0.31;65.90
78210;BME280;67485;48.816;9.930;2023-04-06T06:19:32;97065.19;;;0.39;65.61
78210;BME280;67485;48.816;9.930;2023-04-06T06:22:01;97054.16;;;0.46;65.62
78210;BME280;67485;48.816;9.930;2023-04-06T06:24:28;97049.94;;;0.53;66.32
78210;BME280;67485;48.816;9.930;2023-04-06T06:26:55;97055.53;;;0.81;66.86
78210;BME280;67485;48.816;9.930;2023-04-06T06:29:25;97055.78;;;0.96;66.88
78210;BME280;67485;48.816;9.930;2023-04-06T06:31:50;97059.16;;;0.92;65.66
78210;BME280;67485;48.816;9.930;2023-04-06T06:34:16;97058.22;;;0.89;65.51
78210;BME280;67485;48.816;9.930;2023-04-06T06:36:45;97055.72;;;0.92;65.67
78210;BME280;67485;48.816;9.930;2023-04-06T06:39:12;97063.66;;;1.07;65.14
78210;BME280;67485;48.816;9.930;2023-04-06T06:41:38;97066.59;;;1.31;64.81
78210;BME280;67485;48.816;9.930;2023-04-06T06:44:05;97051.09;;;1.31;65.31
78210;BME280;67485;48.816;9.930;2023-04-06T06:46:33;97062.28;;;1.31;65.29
78210;BME280;67485;48.816;9.930;2023-04-06T06:48:59;97061.72;;;1.54;65.65
78210;BME280;67485;48.816;9.930;2023-04-06T06:51:25;97061.09;;;1.73;65.66
78210;BME280;67485;48.816;9.930;2023-04-06T06:53:51;97062.88;;;1.77;65.32
78210;BME280;67485;48.816;9.930;2023-04-06T06:56:17;97064.00;;;2.01;64.75
78210;BME280;67485;48.816;9.930;2023-04-06T06:58:43;97064.22;;;2.21;63.90
78210;BME280;67485;48.816;9.930;2023-04-06T07:01:09;97059.13;;;2.29;63.68
78210;BME280;67485;48.816;9.930;2023-04-06T07:03:35;97065.13;;;2.25;62.22
78210;BME280;67485;48.816;9.930;2023-04-06T07:06:01;97057.50;;;2.39;61.25
78210;BME280;67485;48.816;9.930;2023-04-06T07:08:27;97065.44;;;2.59;60.87
78210;BME280;67485;48.816;9.930;2023-04-06T07:10:53;97068.13;;;2.70;60.29
78210;BME280;67485;48.816;9.930;2023-04-06T07:13:19;97062.19;;;2.85;59.05
78210;BME280;67485;48.816;9.930;2023-04-06T07:15:50;97059.66;;;2.89;58.57
78210;BME280;67485;48.816;9.930;2023-04-06T07:18:17;97064.88;;;2.99;58.30
78210;BME280;67485;48.816;9.930;2023-04-06T07:20:44;97063.28;;;3.15;56.43
78210;BME280;67485;48.816;9.930;2023-04-06T07:23:09;97061.66;;;3.35;55.21
78210;BME280;67485;48.816;9.930;2023-04-06T07:25:35;97062.59;;;3.47;55.12
78210;BME280;67485;48.816;9.930;2023-04-06T07:28:04;97062.66;;;3.57;55.67
78210;BME280;67485;48.816;9.930;2023-04-06T07:30:31;97062.78;;;3.81;54.45
78210;BME280;67485;48.816;9.930;2023-04-06T07:32:58;97063.63;;;3.80;53.54
78210;BME280;67485;48.816;9.930;2023-04-06T07:35:27;97067.16;;;4.08;53.77
78210;BME280;67485;48.816;9.930;2023-04-06T07:37:54;97061.19;;;4.35;53.83
78210;BME280;67485;48.816;9.930;2023-04-06T07:40:21;97057.75;;;4.33;52.83
78210;BME280;67485;48.816;9.930;2023-04-06T07:42:49;97062.03;;;4.31;53.53
78210;BME280;67485;48.816;9.930;2023-04-06T07:45:14;97061.22;;;4.37;53.53
78210;BME280;67485;48.816;9.930;2023-04-06T07:47:42;97062.06;;;4.42;53.97
78210;BME280;67485;48.816;9.930;2023-04-06T07:50:08;97063.81;;;4.55;54.23
78210;BME280;67485;48.816;9.930;2023-04-06T07:52:34;97062.06;;;4.67;53.81
78210;BME280;67485;48.816;9.930;2023-04-06T07:55:00;97061.22;;;4.91;53.10
78210;BME280;67485;48.816;9.930;2023-04-06T07:57:26;97067.28;;;5.10;52.92
78210;BME280;67485;48.816;9.930;2023-04-06T07:59:52;97061.22;;;5.22;51.57
78210;BME280;67485;48.816;9.930;2023-04-06T08:02:18;97065.47;;;5.49;51.12
78210;BME280;67485;48.816;9.930;2023-04-06T08:04:44;97061.09;;;5.75;51.53
78210;BME280;67485;48.816;9.930;2023-04-06T08:07:10;97066.28;;;5.68;49.54
78210;BME280;67485;48.816;9.930;2023-04-06T08:09:36;97062.72;;;5.97;49.46
78210;BME280;67485;48.816;9.930;2023-04-06T08:12:01;97064.38;;;6.17;47.19
78210;BME280;67485;48.816;9.930;2023-04-06T08:14:27;97062.50;;;6.41;47.67
78210;BME280;67485;48.816;9.930;2023-04-06T08:16:53;97066.00;;;6.38;46.51
78210;BME280;67485;48.816;9.930;2023-04-06T08:19:19;97058.66;;;6.94;45.33
78210;BME280;67485;48.816;9.930;2023-04-06T08:21:45;97057.44;;;7.31;43.30
78210;BME280;67485;48.816;9.930;2023-04-06T08:24:12;97052.03;;;7.50;44.10
78210;BME280;67485;48.816;9.930;2023-04-06T08:26:37;97057.97;;;7.66;44.27
78210;BME280;67485;48.816;9.930;2023-04-06T08:29:03;97056.91;;;7.81;42.88
78210;BME280;67485;48.816;9.930;2023-04-06T08:31:33;97055.00;;;7.97;42.67
78210;BME280;67485;48.816;9.930;2023-04-06T08:33:59;97043.47;;;8.13;42.46
78210;BME280;67485;48.816;9.930;2023-04-06T08:36:25;97051.53;;;7.94;41.83
78210;BME280;67485;48.816;9.930;2023-04-06T08:38:51;97049.41;;;8.24;42.10
78210;BME280;67485;48.816;9.930;2023-04-06T08:41:17;97045.31;;;8.70;42.41
78210;BME280;67485;48.816;9.930;2023-04-06T08:43:46;97047.69;;;9.36;40.40
78210;BME280;67485;48.816;9.930;2023-04-06T08:46:13;97046.88;;;9.79;39.69
78210;BME280;67485;48.816;9.930;2023-04-06T08:48:41;97044.81;;;9.94;39.14
78210;BME280;67485;48.816;9.930;2023-04-06T08:51:11;97039.50;;;9.54;38.94
78210;BME280;67485;48.816;9.930;2023-04-06T08:53:37;97035.91;;;9.58;38.97
78210;BME280;67485;48.816;9.930;2023-04-06T08:56:04;97042.97;;;9.56;38.53
78210;BME280;67485;48.816;9.930;2023-04-06T08:58:35;97036.22;;;9.88;38.01
78210;BME280;67485;48.816;9.930;2023-04-06T09:01:06;97035.44;;;10.26;37.22
78210;BME280;67485;48.816;9.930;2023-04-06T09:03:36;97032.69;;;10.32;36.82
78210;BME280;67485;48.816;9.930;2023-04-06T09:06:03;97027.97;;;10.48;36.76
78210;BME280;67485;48.816;9.930;2023-04-06T09:08:29;97024.94;;;11.37;34.77
78210;BME280;67485;48.816;9.930;2023-04-06T09:10:55;97029.19;;;11.41;33.25
78210;BME280;67485;48.816;9.930;2023-04-06T09:13:21;97021.94;;;12.14;32.28
78210;BME280;67485;48.816;9.930;2023-04-06T09:15:58;97018.34;;;13.02;31.35
78210;BME280;67485;48.816;9.930;2023-04-06T09:18:30;97016.44;;;13.83;28.93
78210;BME280;67485;48.816;9.930;2023-04-06T09:21:07;97013.25;;;14.90;27.76
78210;BME280;67485;48.816;9.930;2023-04-06T09:23:33;97010.50;;;13.77;27.18
78210;BME280;67485;48.816;9.930;2023-04-06T09:26:16;97013.00;;;14.04;27.01
78210;BME280;67485;48.816;9.930;2023-04-06T09:28:53;97018.34;;;13.79;27.41
78210;BME280;67485;48.816;9.930;2023-04-06T09:31:24;97016.03;;;13.44;27.67
78210;BME280;67485;48.816;9.930;2023-04-06T09:33:51;97016.84;;;13.46;26.92
78210;BME280;67485;48.816;9.930;2023-04-06T09:36:29;97009.19;;;15.24;27.39
78210;BME280;67485;48.816;9.930;2023-04-06T09:39:04;97010.72;;;15.30;26.03
78210;BME280;67485;48.816;9.930;2023-04-06T09:41:31;97017.22;;;15.00;26.79
78210;BME280;67485;48.816;9.930;2023-04-06T09:44:04;97001.13;;;15.06;25.93
78210;BME280;67485;48.816;9.930;2023-04-06T09:46:41;97008.41;;;14.79;26.49
78210;BME280;67485;48.816;9.930;2023-04-06T09:49:08;96997.59;;;15.07;26.04
78210;BME280;67485;48.816;9.930;2023-04-06T09:51:39;97006.34;;;14.86;27.11
78210;BME280;67485;48.816;9.930;2023-04-06T09:54:06;96998.50;;;15.89;26.98
78210;BME280;67485;48.816;9.930;2023-04-06T09:56:54;97005.91;;;15.60;26.01
78210;BME280;67485;48.816;9.930;2023-04-06T10:05:09;96997.38;;;16.14;23.64
78210;BME280;67485;48.816;9.930;2023-04-06T10:07:40;97000.78;;;15.76;24.23
78210;BME280;67485;48.816;9.930;2023-04-06T10:10:08;96986.06;;;17.22;23.93
78210;BME280;67485;48.816;9.930;2023-04-06T10:12:37;96979.88;;;16.67;22.83
78210;BME280;67485;48.816;9.930;2023-04-06T10:15:03;96987.06;;;17.01;24.26
78210;BME280;67485;48.816;9.930;2023-04-06T10:17:29;96980.13;;;17.52;23.64
78210;BME280;67485;48.816;9.930;2023-04-06T10:20:01;96983.75;;;15.83;24.29
78210;BME280;67485;48.816;9.930;2023-04-06T10:22:54;96988.13;;;15.64;24.01
78210;BME280;67485;48.816;9.930;2023-04-06T10:28:20;96981.59;;;17.22;24.19
78210;BME280;67485;48.816;9.930;2023-04-06T10:30:46;96978.94;;;17.40;24.23
78210;BME280;67485;48.816;9.930;2023-04-06T10:33:13;96976.94;;;17.10;22.72
78210;BME280;67485;48.816;9.930;2023-04-06T10:35:40;96986.06;;;16.29;24.28
78210;BME280;67485;48.816;9.930;2023-04-06T10:38:06;96982.34;;;16.33;23.63
78210;BME280;67485;48.816;9.930;2023-04-06T10:40:36;96986.81;;;16.69;24.25
78210;BME280;67485;48.816;9.930;2023-04-06T10:43:13;96980.00;;;16.83;23.04
78210;BME280;67485;48.816;9.930;2023-04-06T10:45:40;96982.53;;;16.67;24.13
78210;BME280;67485;48.816;9.930;2023-04-06T10:48:13;96978.88;;;16.69;24.30
78210;BME280;67485;48.816;9.930;2023-04-06T10:50:39;96972.34;;;16.40;22.99
78210;BME280;67485;48.816;9.930;2023-04-06T10:53:05;96967.28;;;16.35;23.30
78210;BME280;67485;48.816;9.930;2023-04-06T10:55:31;96978.34;;;15.66;23.94
78210;BME280;67485;48.816;9.930;2023-04-06T10:57:57;96971.50;;;17.13;22.47
78210;BME280;67485;48.816;9.930;2023-04-06T11:00:23;96969.16;;;18.09;22.71
78210;BME280;67485;48.816;9.930;2023-04-06T11:02:49;96965.41;;;16.93;22.36
78210;BME280;67485;48.816;9.930;2023-04-06T11:05:15;96957.78;;;18.39;22.55
78210;BME280;67485;48.816;9.930;2023-04-06T11:07:41;96960.81;;;19.25;22.07
78210;BME280;67485;48.816;9.930;2023-04-06T11:10:08;96958.63;;;18.55;20.86
78210;BME280;67485;48.816;9.930;2023-04-06T11:12:34;96966.56;;;18.87;20.78
78210;BME280;67485;48.816;9.930;2023-04-06T11:15:02;96956.16;;;17.71;21.93
78210;BME280;67485;48.816;9.930;2023-04-06T11:17:33;96962.84;;;17.09;22.58
78210;BME280;67485;48.816;9.930;2023-04-06T11:20:00;96958.81;;;18.04;21.61
78210;BME280;67485;48.816;9.930;2023-04-06T11:22:26;96949.19;;;18.82;21.10
78210;BME280;67485;48.816;9.930;2023-04-06T11:24:52;96955.13;;;18.71;20.61
78210;BME280;67485;48.816;9.930;2023-04-06T11:27:19;96945.59;;;17.87;20.39
78210;BME280;67485;48.816;9.930;2023-04-06T11:29:46;96945.06;;;17.80;21.70
78210;BME280;67485;48.816;9.930;2023-04-06T11:32:20;96938.03;;;17.79;22.82
78210;BME280;67485;48.816;9.930;2023-04-06T11:34:47;96943.41;;;18.11;22.98
78210;BME280;67485;48.816;9.930;2023-04-06T11:37:13;96934.56;;;17.10;23.20
78210;BME280;67485;48.816;9.930;2023-04-06T11:39:46;96935.06;;;18.81;21.58
78210;BME280;67485;48.816;9.930;2023-04-06T11:42:13;96916.03;;;20.35;19.94
78210;BME280;67485;48.816;9.930;2023-04-06T11:44:46;96924.19;;;19.02;21.91
78210;BME280;67485;48.816;9.930;2023-04-06T11:47:12;96924.03;;;18.73;21.48
78210;BME280;67485;48.816;9.930;2023-04-06T11:49:42;96918.69;;;17.94;21.02
78210;BME280;67485;48.816;9.930;2023-04-06T11:52:24;96921.28;;;17.78;22.52
78210;BME280;67485;48.816;9.930;2023-04-06T11:54:52;96924.78;;;16.94;23.81
78210;BME280;67485;48.816;9.930;2023-04-06T11:57:19;96922.25;;;17.60;23.37
78210;BME280;67485;48.816;9.930;2023-04-06T11:59:46;96915.34;;;17.57;22.12
78210;BME280;67485;48.816;9.930;2023-04-06T12:02:12;96914.16;;;18.28;21.44
78210;BME280;67485;48.816;9.930;2023-04-06T12:04:38;96916.03;;;18.58;21.28
78210;BME280;67485;48.816;9.930;2023-04-06T12:07:04;96912.72;;;18.07;22.17
78210;BME280;67485;48.816;9.930;2023-04-06T12:09:30;96903.25;;;17.36;22.23
78210;BME280;67485;48.816;9.930;2023-04-06T12:11:56;96902.59;;;17.48;22.07
78210;BME280;67485;48.816;9.930;2023-04-06T12:14:22;96911.91;;;16.86;22.89
78210;BME280;67485;48.816;9.930;2023-04-06T12:16:48;96909.72;;;16.41;23.97
78210;BME280;67485;48.816;9.930;2023-04-06T12:19:13;96906.88;;;16.26;23.69
78210;BME280;67485;48.816;9.930;2023-04-06T12:21:39;96900.53;;;16.30;23.16
78210;BME280;67485;48.816;9.930;2023-04-06T12:24:06;96912.72;;;15.56;24.91
78210;BME280;67485;48.816;9.930;2023-04-06T12:26:32;96914.16;;;14.83;25.51
78210;BME280;67485;48.816;9.930;2023-04-06T12:28:58;96913.56;;;14.54;25.34
78210;BME280;67485;48.816;9.930;2023-04-06T12:31:37;96909.03;;;15.00;25.66
78210;BME280;67485;48.816;9.930;2023-04-06T12:34:04;96905.09;;;15.90;24.85
78210;BME280;67485;48.816;9.930;2023-04-06T12:36:30;96893.09;;;15.62;23.92
78210;BME280;67485;48.816;9.930;2023-04-06T12:38:56;96894.44;;;16.82;25.80
78210;BME280;67485;48.816;9.930;2023-04-06T12:41:22;96888.00;;;17.57;23.43
78210;BME280;67485;48.816;9.930;2023-04-06T12:43:48;96882.22;;;17.15;24.10
78210;BME280;67485;48.816;9.930;2023-04-06T12:46:17;96875.50;;;17.43;24.05
78210;BME280;67485;48.816;9.930;2023-04-06T12:48:44;96874.38;;;17.47;22.48
78210;BME280;67485;48.816;9.930;2023-04-06T12:51:10;96881.94;;;17.04;22.14
78210;BME280;67485;48.816;9.930;2023-04-06T12:53:36;96879.63;;;16.07;22.93
78210;BME280;67485;48.816;9.930;2023-04-06T12:56:02;96880.59;;;15.47;23.79
78210;BME280;67485;48.816;9.930;2023-04-06T12:58:28;96870.56;;;13.63;26.78
78210;BME280;67485;48.816;9.930;2023-04-06T13:00:55;96890.34;;;14.62;26.78
78210;BME280;67485;48.816;9.930;2023-04-06T13:03:23;96880.25;;;15.73;26.96
78210;BME280;67485;48.816;9.930;2023-04-06T13:05:50;96877.91;;;16.05;25.99
78210;BME280;67485;48.816;9.930;2023-04-06T13:08:17;96878.94;;;16.57;24.72
78210;BME280;67485;48.816;9.930;2023-04-06T13:10:47;96870.84;;;16.43;24.72
78210;BME280;67485;48.816;9.930;2023-04-06T13:13:17;96870.69;;;16.46;24.50
78210;BME280;67485;48.816;9.930;2023-04-06T13:15:44;96874.44;;;16.42;24.59
78210;BME280;67485;48.816;9.930;2023-04-06T13:18:10;96872.78;;;16.39;24.94
78210;BME280;67485;48.816;9.930;2023-04-06T13:20:36;96877.28;;;15.81;24.26